Vel'Sk, Russia
Current Conditions -  °F | °C
As of 11:30 AM on Sunday 26 Oct 2014 (Local Time) from ULWC Reporting Station
Clear Clear  
Wind Chill: 19°   Ceiling: Unl
Heat Index: 27°   Visibility: 6mi
Dew Point: 16°   Wind: 7mph
Humidity: 64%   Direction: 250°WSW
Pressure: 30.33"   Gusts: 13mph
Location:  61.08°N, 42.07°E
Report Text: ULWC 260830Z 25003G06MPS CAVOK M03/M09 Q1027 NOSIG RMKQFE760/1014 SC055
Loading
Personal Weather Stations






























Interactive Weather Map
Tropical Storm Tracking
New forecast layout! Learn more

10-Day Weather Forecast

Advertisements
Track Severe Weather on mobile